sensor_id;sensor_type;location;lat;lon;timestamp;temperature;humidity
2012;DHT22;1009;51.436;6.972;2022-11-15T00:00:09;11.50;99.90
2012;DHT22;1009;51.436;6.972;2022-11-15T00:02:36;11.60;99.90
2012;DHT22;1009;51.436;6.972;2022-11-15T00:05:05;11.60;99.90
2012;DHT22;1009;51.436;6.972;2022-11-15T00:07:32;11.60;99.90
2012;DHT22;1009;51.436;6.972;2022-11-15T00:09:59;11.70;99.90
2012;DHT22;1009;51.436;6.972;2022-11-15T00:12:27;11.60;99.90
2012;DHT22;1009;51.436;6.972;2022-11-15T00:14:53;11.60;99.90
2012;DHT22;1009;51.436;6.972;2022-11-15T00:17:20;11.60;99.90
2012;DHT22;1009;51.436;6.972;2022-11-15T00:19:47;11.50;99.90
2012;DHT22;1009;51.436;6.972;2022-11-15T00:22:16;11.50;99.90
2012;DHT22;1009;51.436;6.972;2022-11-15T00:24:42;11.50;99.90
2012;DHT22;1009;51.436;6.972;2022-11-15T00:27:09;11.50;99.90
2012;DHT22;1009;51.436;6.972;2022-11-15T00:29:48;11.60;99.90
2012;DHT22;1009;51.436;6.972;2022-11-15T00:32:15;11.60;99.90
2012;DHT22;1009;51.436;6.972;2022-11-15T00:34:41;11.60;99.90
2012;DHT22;1009;51.436;6.972;2022-11-15T00:37:22;11.60;99.90
2012;DHT22;1009;51.436;6.972;2022-11-15T00:39:48;11.70;99.90
2012;DHT22;1009;51.436;6.972;2022-11-15T00:42:18;11.70;99.90
2012;DHT22;1009;51.436;6.972;2022-11-15T00:44:45;11.70;99.90
2012;DHT22;1009;51.436;6.972;2022-11-15T00:47:12;11.70;99.90
2012;DHT22;1009;51.436;6.972;2022-11-15T00:49:39;11.80;99.90
2012;DHT22;1009;51.436;6.972;2022-11-15T00:52:07;11.80;99.90
2012;DHT22;1009;51.436;6.972;2022-11-15T00:54:35;11.80;99.90
2012;DHT22;1009;51.436;6.972;2022-11-15T00:57:02;11.80;99.90
2012;DHT22;1009;51.436;6.972;2022-11-15T00:59:29;11.90;99.90
2012;DHT22;1009;51.436;6.972;2022-11-15T01:01:56;11.90;99.90
2012;DHT22;1009;51.436;6.972;2022-11-15T01:04:23;12.00;99.90
2012;DHT22;1009;51.436;6.972;2022-11-15T01:06:50;12.00;99.90
2012;DHT22;1009;51.436;6.972;2022-11-15T01:09:16;12.00;99.90
2012;DHT22;1009;51.436;6.972;2022-11-15T01:11:45;12.00;99.90
2012;DHT22;1009;51.436;6.972;2022-11-15T01:14:11;12.10;99.90
2012;DHT22;1009;51.436;6.972;2022-11-15T01:16:38;12.10;99.90
2012;DHT22;1009;51.436;6.972;2022-11-15T01:19:05;12.10;99.90
2012;DHT22;1009;51.436;6.972;2022-11-15T01:21:32;12.20;99.90
2012;DHT22;1009;51.436;6.972;2022-11-15T01:23:59;12.20;99.90
2012;DHT22;1009;51.436;6.972;2022-11-15T01:26:26;12.20;99.90
2012;DHT22;1009;51.436;6.972;2022-11-15T01:28:54;12.20;99.90
2012;DHT22;1009;51.436;6.972;2022-11-15T01:31:21;12.20;99.90
2012;DHT22;1009;51.436;6.972;2022-11-15T01:33:48;12.30;99.90
2012;DHT22;1009;51.436;6.972;2022-11-15T01:36:17;12.30;99.90
2012;DHT22;1009;51.436;6.972;2022-11-15T01:38:44;12.30;99.90
2012;DHT22;1009;51.436;6.972;2022-11-15T01:41:19;12.40;99.90
2012;DHT22;1009;51.436;6.972;2022-11-15T01:43:48;12.30;99.90
2012;DHT22;1009;51.436;6.972;2022-11-15T01:46:24;12.40;99.90
2012;DHT22;1009;51.436;6.972;2022-11-15T01:48:58;12.40;99.90
2012;DHT22;1009;51.436;6.972;2022-11-15T01:51:29;12.40;99.90
2012;DHT22;1009;51.436;6.972;2022-11-15T01:53:59;12.40;99.90
2012;DHT22;1009;51.436;6.972;2022-11-15T01:56:29;12.40;99.90
2012;DHT22;1009;51.436;6.972;2022-11-15T01:58:58;12.40;99.90
2012;DHT22;1009;51.436;6.972;2022-11-15T02:01:28;12.40;99.90
2012;DHT22;1009;51.436;6.972;2022-11-15T02:03:59;12.40;99.90
2012;DHT22;1009;51.436;6.972;2022-11-15T02:06:26;12.40;99.90
2012;DHT22;1009;51.436;6.972;2022-11-15T02:08:54;12.40;99.90
2012;DHT22;1009;51.436;6.972;2022-11-15T02:11:21;12.40;99.90
2012;DHT22;1009;51.436;6.972;2022-11-15T02:13:48;12.40;99.90
2012;DHT22;1009;51.436;6.972;2022-11-15T02:16:24;12.40;99.90
2012;DHT22;1009;51.436;6.972;2022-11-15T02:21:43;12.50;99.90
2012;DHT22;1009;51.436;6.972;2022-11-15T02:24:32;12.50;99.90
2012;DHT22;1009;51.436;6.972;2022-11-15T02:27:38;12.50;99.90
2012;DHT22;1009;51.436;6.972;2022-11-15T02:30:19;12.50;99.90
2012;DHT22;1009;51.436;6.972;2022-11-15T02:32:50;12.50;99.90
2012;DHT22;1009;51.436;6.972;2022-11-15T02:35:25;12.50;99.90
2012;DHT22;1009;51.436;6.972;2022-11-15T02:37:57;12.50;99.90
2012;DHT22;1009;51.436;6.972;2022-11-15T02:40:34;12.50;99.90
2012;DHT22;1009;51.436;6.972;2022-11-15T02:43:07;12.50;99.90
2012;DHT22;1009;51.436;6.972;2022-11-15T02:46:00;12.40;99.90
2012;DHT22;1009;51.436;6.972;2022-11-15T02:48:28;12.50;99.90
2012;DHT22;1009;51.436;6.972;2022-11-15T02:50:55;12.50;99.90
2012;DHT22;1009;51.436;6.972;2022-11-15T02:53:24;12.50;99.90
2012;DHT22;1009;51.436;6.972;2022-11-15T02:55:52;12.50;99.90
2012;DHT22;1009;51.436;6.972;2022-11-15T02:58:36;12.50;99.90
2012;DHT22;1009;51.436;6.972;2022-11-15T03:01:13;12.50;99.90
2012;DHT22;1009;51.436;6.972;2022-11-15T03:03:55;12.60;99.90
2012;DHT22;1009;51.436;6.972;2022-11-15T03:06:29;12.60;99.90
2012;DHT22;1009;51.436;6.972;2022-11-15T03:09:08;12.60;99.90
2012;DHT22;1009;51.436;6.972;2022-11-15T03:11:47;12.60;99.90
2012;DHT22;1009;51.436;6.972;2022-11-15T03:14:21;12.60;99.90
2012;DHT22;1009;51.436;6.972;2022-11-15T03:16:58;12.70;99.90
2012;DHT22;1009;51.436;6.972;2022-11-15T03:19:33;12.70;99.90
2012;DHT22;1009;51.436;6.972;2022-11-15T03:22:02;12.70;99.90
2012;DHT22;1009;51.436;6.972;2022-11-15T03:24:31;12.70;99.90
2012;DHT22;1009;51.436;6.972;2022-11-15T03:27:01;12.70;99.90
2012;DHT22;1009;51.436;6.972;2022-11-15T03:29:33;12.70;99.90
2012;DHT22;1009;51.436;6.972;2022-11-15T03:32:05;12.80;99.90
2012;DHT22;1009;51.436;6.972;2022-11-15T03:34:38;12.80;99.90
2012;DHT22;1009;51.436;6.972;2022-11-15T03:37:06;12.80;99.90
2012;DHT22;1009;51.436;6.972;2022-11-15T03:39:33;12.80;99.90
2012;DHT22;1009;51.436;6.972;2022-11-15T03:42:09;12.80;99.90
2012;DHT22;1009;51.436;6.972;2022-11-15T03:44:44;12.80;99.90
2012;DHT22;1009;51.436;6.972;2022-11-15T03:47:17;12.80;99.90
2012;DHT22;1009;51.436;6.972;2022-11-15T03:49:49;12.90;99.90
2012;DHT22;1009;51.436;6.972;2022-11-15T03:52:18;12.80;99.90
2012;DHT22;1009;51.436;6.972;2022-11-15T03:54:50;12.80;99.90
2012;DHT22;1009;51.436;6.972;2022-11-15T03:57:17;12.90;99.90
2012;DHT22;1009;51.436;6.972;2022-11-15T03:59:44;12.80;99.90
2012;DHT22;1009;51.436;6.972;2022-11-15T04:02:10;12.90;99.90
2012;DHT22;1009;51.436;6.972;2022-11-15T04:04:42;12.90;99.90
2012;DHT22;1009;51.436;6.972;2022-11-15T04:07:08;12.90;99.90
2012;DHT22;1009;51.436;6.972;2022-11-15T04:09:35;12.90;99.90
2012;DHT22;1009;51.436;6.972;2022-11-15T04:12:23;12.90;99.90
2012;DHT22;1009;51.436;6.972;2022-11-15T04:14:56;12.90;99.90
2012;DHT22;1009;51.436;6.972;2022-11-15T04:17:34;12.90;99.90
2012;DHT22;1009;51.436;6.972;2022-11-15T04:20:02;13.00;99.90
2012;DHT22;1009;51.436;6.972;2022-11-15T04:22:47;13.00;99.90
2012;DHT22;1009;51.436;6.972;2022-11-15T04:25:30;13.00;99.90
2012;DHT22;1009;51.436;6.972;2022-11-15T04:27:57;13.00;99.90
2012;DHT22;1009;51.436;6.972;2022-11-15T04:30:24;13.00;99.90
2012;DHT22;1009;51.436;6.972;2022-11-15T04:32:57;13.10;99.90
2012;DHT22;1009;51.436;6.972;2022-11-15T04:35:25;13.00;99.90
2012;DHT22;1009;51.436;6.972;2022-11-15T04:37:51;13.10;99.90
2012;DHT22;1009;51.436;6.972;2022-11-15T04:40:18;13.10;99.90
2012;DHT22;1009;51.436;6.972;2022-11-15T04:42:48;13.10;99.90
2012;DHT22;1009;51.436;6.972;2022-11-15T04:45:18;13.00;99.90
2012;DHT22;1009;51.436;6.972;2022-11-15T04:47:45;13.10;99.90
2012;DHT22;1009;51.436;6.972;2022-11-15T04:50:12;13.10;99.90
2012;DHT22;1009;51.436;6.972;2022-11-15T04:52:42;13.10;99.90
2012;DHT22;1009;51.436;6.972;2022-11-15T04:55:09;13.00;99.90
2012;DHT22;1009;51.436;6.972;2022-11-15T04:57:36;12.90;99.90
2012;DHT22;1009;51.436;6.972;2022-11-15T05:00:04;12.90;99.90
2012;DHT22;1009;51.436;6.972;2022-11-15T05:02:31;12.90;99.90
2012;DHT22;1009;51.436;6.972;2022-11-15T05:05:12;12.90;99.90
2012;DHT22;1009;51.436;6.972;2022-11-15T05:07:40;12.90;99.90
2012;DHT22;1009;51.436;6.972;2022-11-15T05:10:07;12.80;99.90
2012;DHT22;1009;51.436;6.972;2022-11-15T05:12:35;12.80;99.90
2012;DHT22;1009;51.436;6.972;2022-11-15T05:15:02;12.80;99.90
2012;DHT22;1009;51.436;6.972;2022-11-15T05:17:28;12.80;99.90
2012;DHT22;1009;51.436;6.972;2022-11-15T05:19:55;12.70;99.90
2012;DHT22;1009;51.436;6.972;2022-11-15T05:22:22;12.60;99.90
2012;DHT22;1009;51.436;6.972;2022-11-15T05:24:50;12.60;99.90
2012;DHT22;1009;51.436;6.972;2022-11-15T05:27:17;12.60;99.90
2012;DHT22;1009;51.436;6.972;2022-11-15T05:29:43;12.50;99.90
2012;DHT22;1009;51.436;6.972;2022-11-15T05:32:11;12.50;99.90
2012;DHT22;1009;51.436;6.972;2022-11-15T05:34:38;12.50;99.90
2012;DHT22;1009;51.436;6.972;2022-11-15T05:37:05;12.50;99.90
2012;DHT22;1009;51.436;6.972;2022-11-15T05:39:32;12.40;99.90
2012;DHT22;1009;51.436;6.972;2022-11-15T05:42:04;12.40;99.90
2012;DHT22;1009;51.436;6.972;2022-11-15T05:44:33;12.40;99.90
2012;DHT22;1009;51.436;6.972;2022-11-15T05:47:00;12.40;99.90
2012;DHT22;1009;51.436;6.972;2022-11-15T05:49:32;12.40;99.90
2012;DHT22;1009;51.436;6.972;2022-11-15T05:52:00;12.30;99.90
2012;DHT22;1009;51.436;6.972;2022-11-15T05:54:28;12.30;99.90
2012;DHT22;1009;51.436;6.972;2022-11-15T05:56:57;12.30;99.90
2012;DHT22;1009;51.436;6.972;2022-11-15T05:59:28;12.40;99.90
2012;DHT22;1009;51.436;6.972;2022-11-15T06:01:55;12.40;99.90
2012;DHT22;1009;51.436;6.972;2022-11-15T06:04:22;12.50;99.90
2012;DHT22;1009;51.436;6.972;2022-11-15T06:06:49;12.50;99.90
2012;DHT22;1009;51.436;6.972;2022-11-15T06:09:16;12.50;99.90
2012;DHT22;1009;51.436;6.972;2022-11-15T06:11:43;12.40;99.90
2012;DHT22;1009;51.436;6.972;2022-11-15T06:14:09;12.50;99.90
2012;DHT22;1009;51.436;6.972;2022-11-15T06:16:37;12.40;99.90
2012;DHT22;1009;51.436;6.972;2022-11-15T06:19:05;12.40;99.90
2012;DHT22;1009;51.436;6.972;2022-11-15T06:21:35;12.40;99.90
2012;DHT22;1009;51.436;6.972;2022-11-15T06:24:05;12.40;99.90
2012;DHT22;1009;51.436;6.972;2022-11-15T06:26:32;12.40;99.90
2012;DHT22;1009;51.436;6.972;2022-11-15T06:28:59;12.40;99.90
2012;DHT22;1009;51.436;6.972;2022-11-15T06:31:26;12.40;99.90
2012;DHT22;1009;51.436;6.972;2022-11-15T06:33:55;12.50;99.90
2012;DHT22;1009;51.436;6.972;2022-11-15T06:36:22;12.50;99.90
2012;DHT22;1009;51.436;6.972;2022-11-15T06:38:48;12.50;99.90
2012;DHT22;1009;51.436;6.972;2022-11-15T06:41:15;12.40;99.90
2012;DHT22;1009;51.436;6.972;2022-11-15T06:43:43;12.50;99.90
2012;DHT22;1009;51.436;6.972;2022-11-15T06:46:10;12.50;99.90
2012;DHT22;1009;51.436;6.972;2022-11-15T06:48:37;12.50;99.90
2012;DHT22;1009;51.436;6.972;2022-11-15T06:51:06;12.50;99.90
2012;DHT22;1009;51.436;6.972;2022-11-15T06:53:34;12.50;99.90
2012;DHT22;1009;51.436;6.972;2022-11-15T06:56:04;12.50;99.90
2012;DHT22;1009;51.436;6.972;2022-11-15T06:58:32;12.50;99.90
2012;DHT22;1009;51.436;6.972;2022-11-15T07:01:00;12.50;99.90
2012;DHT22;1009;51.436;6.972;2022-11-15T07:03:27;12.50;99.90
2012;DHT22;1009;51.436;6.972;2022-11-15T07:05:55;12.50;99.90
2012;DHT22;1009;51.436;6.972;2022-11-15T07:08:24;12.50;99.90
2012;DHT22;1009;51.436;6.972;2022-11-15T07:10:53;12.50;99.90
2012;DHT22;1009;51.436;6.972;2022-11-15T07:13:22;12.50;99.90
2012;DHT22;1009;51.436;6.972;2022-11-15T07:15:50;12.50;99.90
2012;DHT22;1009;51.436;6.972;2022-11-15T07:18:17;12.50;99.90
2012;DHT22;1009;51.436;6.972;2022-11-15T07:20:43;12.50;99.90
2012;DHT22;1009;51.436;6.972;2022-11-15T07:23:10;12.50;99.90
2012;DHT22;1009;51.436;6.972;2022-11-15T07:25:38;12.60;99.90
2012;DHT22;1009;51.436;6.972;2022-11-15T07:28:05;12.60;99.90
2012;DHT22;1009;51.436;6.972;2022-11-15T07:30:32;12.60;99.90
2012;DHT22;1009;51.436;6.972;2022-11-15T07:32:59;12.60;99.90
2012;DHT22;1009;51.436;6.972;2022-11-15T07:35:28;12.60;99.90
2012;DHT22;1009;51.436;6.972;2022-11-15T07:37:56;12.60;99.90
2012;DHT22;1009;51.436;6.972;2022-11-15T07:40:25;12.60;99.90
2012;DHT22;1009;51.436;6.972;2022-11-15T07:42:58;12.60;99.90
2012;DHT22;1009;51.436;6.972;2022-11-15T07:45:25;12.60;99.90
2012;DHT22;1009;51.436;6.972;2022-11-15T07:47:53;12.60;99.90
2012;DHT22;1009;51.436;6.972;2022-11-15T07:50:21;12.60;99.90
2012;DHT22;1009;51.436;6.972;2022-11-15T07:52:53;12.60;99.90
2012;DHT22;1009;51.436;6.972;2022-11-15T07:55:20;12.60;99.90
2012;DHT22;1009;51.436;6.972;2022-11-15T07:57:46;12.60;99.90
2012;DHT22;1009;51.436;6.972;2022-11-15T08:00:16;12.60;99.90
2012;DHT22;1009;51.436;6.972;2022-11-15T08:02:44;12.60;99.90
2012;DHT22;1009;51.436;6.972;2022-11-15T08:05:10;12.70;99.90
2012;DHT22;1009;51.436;6.972;2022-11-15T08:07:38;12.70;99.90
2012;DHT22;1009;51.436;6.972;2022-11-15T08:10:06;12.70;99.90
2012;DHT22;1009;51.436;6.972;2022-11-15T08:12:33;12.70;99.90
2012;DHT22;1009;51.436;6.972;2022-11-15T08:15:00;12.80;99.90
2012;DHT22;1009;51.436;6.972;2022-11-15T08:17:28;12.70;99.90
2012;DHT22;1009;51.436;6.972;2022-11-15T08:19:58;12.70;99.90
2012;DHT22;1009;51.436;6.972;2022-11-15T08:22:24;12.80;99.90
2012;DHT22;1009;51.436;6.972;2022-11-15T08:24:51;12.80;99.90
2012;DHT22;1009;51.436;6.972;2022-11-15T08:27:18;12.80;99.90
2012;DHT22;1009;51.436;6.972;2022-11-15T08:29:47;12.90;99.90
2012;DHT22;1009;51.436;6.972;2022-11-15T08:32:13;12.90;99.90
2012;DHT22;1009;51.436;6.972;2022-11-15T08:34:41;13.00;99.90
2012;DHT22;1009;51.436;6.972;2022-11-15T08:37:08;13.10;99.90
2012;DHT22;1009;51.436;6.972;2022-11-15T08:39:35;13.20;99.90
2012;DHT22;1009;51.436;6.972;2022-11-15T08:42:03;13.20;99.90
2012;DHT22;1009;51.436;6.972;2022-11-15T08:44:29;13.30;99.90
2012;DHT22;1009;51.436;6.972;2022-11-15T08:46:56;13.40;99.90
2012;DHT22;1009;51.436;6.972;2022-11-15T08:49:23;13.40;99.90
2012;DHT22;1009;51.436;6.972;2022-11-15T08:51:51;13.40;99.90
2012;DHT22;1009;51.436;6.972;2022-11-15T08:54:17;13.40;99.90
2012;DHT22;1009;51.436;6.972;2022-11-15T08:56:44;13.30;99.90
2012;DHT22;1009;51.436;6.972;2022-11-15T08:59:11;13.30;99.90
2012;DHT22;1009;51.436;6.972;2022-11-15T09:01:38;13.30;99.90
2012;DHT22;1009;51.436;6.972;2022-11-15T09:04:04;13.30;99.90
2012;DHT22;1009;51.436;6.972;2022-11-15T09:06:31;13.30;99.90
2012;DHT22;1009;51.436;6.972;2022-11-15T09:09:00;13.40;99.90
2012;DHT22;1009;51.436;6.972;2022-11-15T09:11:27;13.40;99.90
2012;DHT22;1009;51.436;6.972;2022-11-15T09:13:54;13.40;99.90
2012;DHT22;1009;51.436;6.972;2022-11-15T09:16:21;13.30;99.90
2012;DHT22;1009;51.436;6.972;2022-11-15T09:18:48;13.40;99.90
2012;DHT22;1009;51.436;6.972;2022-11-15T09:21:15;13.40;99.90
2012;DHT22;1009;51.436;6.972;2022-11-15T09:23:41;13.30;99.90
2012;DHT22;1009;51.436;6.972;2022-11-15T09:26:09;13.30;99.90
2012;DHT22;1009;51.436;6.972;2022-11-15T09:28:37;13.40;99.90
2012;DHT22;1009;51.436;6.972;2022-11-15T09:31:07;13.30;99.90
2012;DHT22;1009;51.436;6.972;2022-11-15T09:33:34;13.20;99.90
2012;DHT22;1009;51.436;6.972;2022-11-15T09:36:02;13.30;99.90
2012;DHT22;1009;51.436;6.972;2022-11-15T09:38:29;13.40;99.90
2012;DHT22;1009;51.436;6.972;2022-11-15T09:41:18;13.40;99.90
2012;DHT22;1009;51.436;6.972;2022-11-15T09:43:53;13.50;99.90
2012;DHT22;1009;51.436;6.972;2022-11-15T09:46:27;13.50;99.90
2012;DHT22;1009;51.436;6.972;2022-11-15T09:48:57;13.50;99.90
2012;DHT22;1009;51.436;6.972;2022-11-15T09:51:27;13.40;99.90
2012;DHT22;1009;51.436;6.972;2022-11-15T09:53:59;13.40;99.90
2012;DHT22;1009;51.436;6.972;2022-11-15T09:56:30;13.30;99.90
2012;DHT22;1009;51.436;6.972;2022-11-15T09:59:08;13.40;99.90
2012;DHT22;1009;51.436;6.972;2022-11-15T10:01:44;13.40;99.90
2012;DHT22;1009;51.436;6.972;2022-11-15T10:04:11;13.50;99.90
2012;DHT22;1009;51.436;6.972;2022-11-15T10:06:42;13.50;99.90
2012;DHT22;1009;51.436;6.972;2022-11-15T10:09:15;13.50;99.90
2012;DHT22;1009;51.436;6.972;2022-11-15T10:11:43;13.50;99.90
2012;DHT22;1009;51.436;6.972;2022-11-15T10:14:13;13.50;99.90
2012;DHT22;1009;51.436;6.972;2022-11-15T10:19:51;13.50;99.90
2012;DHT22;1009;51.436;6.972;2022-11-15T10:22:25;13.40;99.90
2012;DHT22;1009;51.436;6.972;2022-11-15T10:25:11;13.50;99.90
2012;DHT22;1009;51.436;6.972;2022-11-15T10:27:41;13.50;99.90
2012;DHT22;1009;51.436;6.972;2022-11-15T10:30:12;13.60;99.90
2012;DHT22;1009;51.436;6.972;2022-11-15T10:32:40;13.60;99.90
2012;DHT22;1009;51.436;6.972;2022-11-15T10:35:17;13.60;99.90
2012;DHT22;1009;51.436;6.972;2022-11-15T10:37:44;13.70;99.90
2012;DHT22;1009;51.436;6.972;2022-11-15T10:40:16;13.70;99.90
2012;DHT22;1009;51.436;6.972;2022-11-15T10:42:45;13.90;99.90
2012;DHT22;1009;51.436;6.972;2022-11-15T10:45:24;13.90;99.90
2012;DHT22;1009;51.436;6.972;2022-11-15T10:47:51;14.00;99.90
2012;DHT22;1009;51.436;6.972;2022-11-15T10:50:28;14.10;99.90
2012;DHT22;1009;51.436;6.972;2022-11-15T10:52:55;14.20;99.90
2012;DHT22;1009;51.436;6.972;2022-11-15T10:55:25;14.20;99.90
2012;DHT22;1009;51.436;6.972;2022-11-15T10:57:55;14.10;99.90
2012;DHT22;1009;51.436;6.972;2022-11-15T11:00:32;14.20;99.90
2012;DHT22;1009;51.436;6.972;2022-11-15T11:03:00;14.30;99.90
2012;DHT22;1009;51.436;6.972;2022-11-15T11:05:29;14.30;99.90
2012;DHT22;1009;51.436;6.972;2022-11-15T11:07:59;14.40;99.90
2012;DHT22;1009;51.436;6.972;2022-11-15T11:10:26;14.40;99.90
2012;DHT22;1009;51.436;6.972;2022-11-15T11:12:54;14.50;99.90
2012;DHT22;1009;51.436;6.972;2022-11-15T11:15:24;14.60;99.90
2012;DHT22;1009;51.436;6.972;2022-11-15T11:18:01;14.60;99.90
2012;DHT22;1009;51.436;6.972;2022-11-15T11:20:33;14.70;99.90
2012;DHT22;1009;51.436;6.972;2022-11-15T11:23:16;14.80;99.90
2012;DHT22;1009;51.436;6.972;2022-11-15T11:25:51;15.00;99.90
2012;DHT22;1009;51.436;6.972;2022-11-15T11:28:36;15.00;99.90
2012;DHT22;1009;51.436;6.972;2022-11-15T11:31:16;15.00;99.90
2012;DHT22;1009;51.436;6.972;2022-11-15T11:33:52;15.20;99.90
2012;DHT22;1009;51.436;6.972;2022-11-15T11:36:25;15.30;99.90
2012;DHT22;1009;51.436;6.972;2022-11-15T11:39:00;15.20;99.90
2012;DHT22;1009;51.436;6.972;2022-11-15T11:41:43;15.20;99.90
2012;DHT22;1009;51.436;6.972;2022-11-15T11:44:23;14.90;99.90
2012;DHT22;1009;51.436;6.972;2022-11-15T11:46:55;14.90;99.90
2012;DHT22;1009;51.436;6.972;2022-11-15T11:49:26;15.10;99.90
2012;DHT22;1009;51.436;6.972;2022-11-15T11:51:58;15.00;99.90
2012;DHT22;1009;51.436;6.972;2022-11-15T11:54:33;15.10;99.90
2012;DHT22;1009;51.436;6.972;2022-11-15T11:57:11;15.10;99.90
2012;DHT22;1009;51.436;6.972;2022-11-15T11:59:43;15.20;99.90
2012;DHT22;1009;51.436;6.972;2022-11-15T12:02:20;15.20;99.90
2012;DHT22;1009;51.436;6.972;2022-11-15T12:04:51;15.20;99.90
2012;DHT22;1009;51.436;6.972;2022-11-15T12:07:23;15.20;99.90
2012;DHT22;1009;51.436;6.972;2022-11-15T12:09:55;15.20;99.90
2012;DHT22;1009;51.436;6.972;2022-11-15T12:12:30;15.20;99.90
2012;DHT22;1009;51.436;6.972;2022-11-15T12:15:09;15.20;99.90
2012;DHT22;1009;51.436;6.972;2022-11-15T12:17:39;15.10;99.90
2012;DHT22;1009;51.436;6.972;2022-11-15T12:20:15;15.00;99.90
2012;DHT22;1009;51.436;6.972;2022-11-15T12:22:49;15.00;99.90
2012;DHT22;1009;51.436;6.972;2022-11-15T12:25:26;14.90;99.90
2012;DHT22;1009;51.436;6.972;2022-11-15T12:27:57;15.00;99.90
2012;DHT22;1009;51.436;6.972;2022-11-15T12:30:38;15.20;99.90
2012;DHT22;1009;51.436;6.972;2022-11-15T12:33:32;15.30;99.90
2012;DHT22;1009;51.436;6.972;2022-11-15T12:36:05;15.40;99.90
2012;DHT22;1009;51.436;6.972;2022-11-15T12:38:54;15.30;99.90
2012;DHT22;1009;51.436;6.972;2022-11-15T12:41:27;15.30;99.90
2012;DHT22;1009;51.436;6.972;2022-11-15T12:43:55;15.30;99.90
2012;DHT22;1009;51.436;6.972;2022-11-15T12:47:00;15.20;99.90
2012;DHT22;1009;51.436;6.972;2022-11-15T12:49:45;15.20;99.90
2012;DHT22;1009;51.436;6.972;2022-11-15T12:52:12;15.30;99.90
2012;DHT22;1009;51.436;6.972;2022-11-15T12:54:57;15.30;99.90
2012;DHT22;1009;51.436;6.972;2022-11-15T12:57:32;15.40;99.90
2012;DHT22;1009;51.436;6.972;2022-11-15T13:00:01;15.50;99.90
2012;DHT22;1009;51.436;6.972;2022-11-15T13:02:32;15.60;99.90
2012;DHT22;1009;51.436;6.972;2022-11-15T13:08:06;15.90;99.90
2012;DHT22;1009;51.436;6.972;2022-11-15T13:10:34;16.00;99.90
2012;DHT22;1009;51.436;6.972;2022-11-15T13:13:02;16.10;99.90
2012;DHT22;1009;51.436;6.972;2022-11-15T13:15:51;16.20;99.90
2012;DHT22;1009;51.436;6.972;2022-11-15T13:21:05;16.30;99.90
2012;DHT22;1009;51.436;6.972;2022-11-15T13:23:57;16.40;99.90
2012;DHT22;1009;51.436;6.972;2022-11-15T13:26:24;16.30;99.90
2012;DHT22;1009;51.436;6.972;2022-11-15T13:28:52;16.40;99.90
2012;DHT22;1009;51.436;6.972;2022-11-15T13:31:25;16.20;99.90
2012;DHT22;1009;51.436;6.972;2022-11-15T13:33:56;16.10;99.90
2012;DHT22;1009;51.436;6.972;2022-11-15T13:36:25;15.80;99.90
2012;DHT22;1009;51.436;6.972;2022-11-15T13:38:57;15.50;99.90
2012;DHT22;1009;51.436;6.972;2022-11-15T13:41:26;15.40;99.90
2012;DHT22;1009;51.436;6.972;2022-11-15T13:43:55;15.30;99.90
2012;DHT22;1009;51.436;6.972;2022-11-15T13:46:23;15.20;99.90
2012;DHT22;1009;51.436;6.972;2022-11-15T13:48:56;15.10;99.90
2012;DHT22;1009;51.436;6.972;2022-11-15T13:51:30;15.00;99.90
2012;DHT22;1009;51.436;6.972;2022-11-15T13:54:01;15.00;99.90
2012;DHT22;1009;51.436;6.972;2022-11-15T13:56:31;14.80;99.90
2012;DHT22;1009;51.436;6.972;2022-11-15T13:58:59;14.80;99.90
2012;DHT22;1009;51.436;6.972;2022-11-15T14:01:29;14.70;99.90
2012;DHT22;1009;51.436;6.972;2022-11-15T14:04:00;14.80;99.90
2012;DHT22;1009;51.436;6.972;2022-11-15T14:06:29;14.80;99.90
2012;DHT22;1009;51.436;6.972;2022-11-15T14:09:30;14.90;99.90
2012;DHT22;1009;51.436;6.972;2022-11-15T14:11:59;14.80;99.90
2012;DHT22;1009;51.436;6.972;2022-11-15T14:14:28;14.90;99.90
2012;DHT22;1009;51.436;6.972;2022-11-15T14:16:56;14.90;99.90
2012;DHT22;1009;51.436;6.972;2022-11-15T14:19:39;14.80;99.90
2012;DHT22;1009;51.436;6.972;2022-11-15T14:22:18;14.70;99.90
2012;DHT22;1009;51.436;6.972;2022-11-15T14:25:02;14.60;99.90
2012;DHT22;1009;51.436;6.972;2022-11-15T14:27:31;14.50;99.90
2012;DHT22;1009;51.436;6.972;2022-11-15T14:29:57;14.50;99.90
2012;DHT22;1009;51.436;6.972;2022-11-15T14:32:26;14.50;99.90
2012;DHT22;1009;51.436;6.972;2022-11-15T14:34:59;14.50;99.90
2012;DHT22;1009;51.436;6.972;2022-11-15T14:37:28;14.50;99.90
2012;DHT22;1009;51.436;6.972;2022-11-15T14:39:57;14.60;99.90
2012;DHT22;1009;51.436;6.972;2022-11-15T14:42:23;14.50;99.90
2012;DHT22;1009;51.436;6.972;2022-11-15T14:44:50;14.50;99.90
2012;DHT22;1009;51.436;6.972;2022-11-15T14:47:18;14.40;99.90
2012;DHT22;1009;51.436;6.972;2022-11-15T14:49:44;14.40;99.90
2012;DHT22;1009;51.436;6.972;2022-11-15T14:52:26;14.40;99.90
2012;DHT22;1009;51.436;6.972;2022-11-15T14:54:54;14.50;99.90
2012;DHT22;1009;51.436;6.972;2022-11-15T14:57:21;14.40;99.90
2012;DHT22;1009;51.436;6.972;2022-11-15T14:59:47;14.40;99.90
2012;DHT22;1009;51.436;6.972;2022-11-15T15:02:18;14.40;99.90
2012;DHT22;1009;51.436;6.972;2022-11-15T15:04:45;14.30;99.90
2012;DHT22;1009;51.436;6.972;2022-11-15T15:07:12;14.30;99.90
2012;DHT22;1009;51.436;6.972;2022-11-15T15:09:41;14.30;99.90
2012;DHT22;1009;51.436;6.972;2022-11-15T15:12:15;14.30;99.90
2012;DHT22;1009;51.436;6.972;2022-11-15T15:14:42;14.30;99.90
2012;DHT22;1009;51.436;6.972;2022-11-15T15:17:09;14.20;99.90
2012;DHT22;1009;51.436;6.972;2022-11-15T15:19:36;14.20;99.90
2012;DHT22;1009;51.436;6.972;2022-11-15T15:22:02;14.20;99.90
2012;DHT22;1009;51.436;6.972;2022-11-15T15:24:29;14.20;99.90
2012;DHT22;1009;51.436;6.972;2022-11-15T15:26:57;14.20;99.90
2012;DHT22;1009;51.436;6.972;2022-11-15T15:29:24;14.20;99.90
2012;DHT22;1009;51.436;6.972;2022-11-15T15:31:51;14.20;99.90
2012;DHT22;1009;51.436;6.972;2022-11-15T15:34:17;14.10;99.90
2012;DHT22;1009;51.436;6.972;2022-11-15T15:36:44;14.10;99.90
2012;DHT22;1009;51.436;6.972;2022-11-15T15:39:11;14.10;99.90
2012;DHT22;1009;51.436;6.972;2022-11-15T15:41:37;14.10;99.90
2012;DHT22;1009;51.436;6.972;2022-11-15T15:44:05;14.10;99.90
2012;DHT22;1009;51.436;6.972;2022-11-15T15:46:33;14.10;99.90
2012;DHT22;1009;51.436;6.972;2022-11-15T15:49:00;14.20;99.90
2012;DHT22;1009;51.436;6.972;2022-11-15T15:51:27;14.20;99.90
2012;DHT22;1009;51.436;6.972;2022-11-15T15:53:53;14.10;99.90
2012;DHT22;1009;51.436;6.972;2022-11-15T15:56:22;14.20;99.90
2012;DHT22;1009;51.436;6.972;2022-11-15T15:58:49;14.20;99.90
2012;DHT22;1009;51.436;6.972;2022-11-15T16:01:19;14.20;99.90
2012;DHT22;1009;51.436;6.972;2022-11-15T16:03:46;14.10;99.90
2012;DHT22;1009;51.436;6.972;2022-11-15T16:06:34;14.10;99.90
2012;DHT22;1009;51.436;6.972;2022-11-15T16:09:02;14.10;99.90
2012;DHT22;1009;51.436;6.972;2022-11-15T16:11:29;14.10;99.90
2012;DHT22;1009;51.436;6.972;2022-11-15T16:13:55;14.10;99.90
2012;DHT22;1009;51.436;6.972;2022-11-15T16:16:23;14.10;99.90
2012;DHT22;1009;51.436;6.972;2022-11-15T16:18:50;14.10;99.90
2012;DHT22;1009;51.436;6.972;2022-11-15T16:21:19;14.10;99.90
2012;DHT22;1009;51.436;6.972;2022-11-15T16:23:45;14.10;99.90
2012;DHT22;1009;51.436;6.972;2022-11-15T16:26:20;14.00;99.90
2012;DHT22;1009;51.436;6.972;2022-11-15T16:28:48;14.00;99.90
2012;DHT22;1009;51.436;6.972;2022-11-15T16:31:15;14.00;99.90
2012;DHT22;1009;51.436;6.972;2022-11-15T16:33:45;14.00;99.90